Rechercher aéroport 
image banner adimage banner adimage banner ad
image banner ad

50PA - Pegasus Air Park

Situé à Stroudsburg, United States

ICAO - 50PA, IATA -

Données fournies par Airmate  

Information générale

Coordonnées: N40°56'0" W75°20'59"
Élévation : 620 feet MSL.
Variation magnétique : -12° East
Voir autres Aéroports à Pennsylvania

Données opérationnelles

Special qualification required
Heure actuelle UTC:
Heure actuelle locale:
Météo à : KMPO - Pocono Mountains Muni ( 23 km )
METAR: KMPO 150622Z AUTO 32007KT 3SM BR BKN001 14/14 A2981 RMK AO2 T01390139 PNO $
Voir NOTAMs / SUP AIP / TFR affectant cet aéroport [VIEW]
Fréquences de communication: [VIEW]

Pistes:

Identifiant RWYQFULongueur (ft)Largeur (ft)SurfaceLDA (ft)
E2700100GRASS
W2700100GRASS

Coordonnées de l'aéroport

Adresse: Stroudsburg United States

Vue satellite de 50PA